sensor_id;sensor_type;location;lat;lon;timestamp;P1;durP1;ratioP1;P2;durP2;ratioP2
25525;SDS011;13424;48.424;11.258;2024-03-08T00:00:08;38.47;;;20.38;;
25525;SDS011;13424;48.424;11.258;2024-03-08T00:05:08;45.22;;;20.88;;
25525;SDS011;13424;48.424;11.258;2024-03-08T00:07:35;39.17;;;19.92;;
25525;SDS011;13424;48.424;11.258;2024-03-08T00:10:09;41.20;;;22.60;;
25525;SDS011;13424;48.424;11.258;2024-03-08T00:12:38;40.13;;;21.90;;
25525;SDS011;13424;48.424;11.258;2024-03-08T00:15:09;40.67;;;21.60;;
25525;SDS011;13424;48.424;11.258;2024-03-08T00:17:39;43.83;;;21.90;;
25525;SDS011;13424;48.424;11.258;2024-03-08T00:20:09;44.25;;;22.15;;
25525;SDS011;13424;48.424;11.258;2024-03-08T00:22:39;39.90;;;20.75;;
25525;SDS011;13424;48.424;11.258;2024-03-08T00:25:06;40.47;;;21.48;;
25525;SDS011;13424;48.424;11.258;2024-03-08T00:30:09;36.10;;;18.85;;
25525;SDS011;13424;48.424;11.258;2024-03-08T00:32:38;34.72;;;20.02;;
25525;SDS011;13424;48.424;11.258;2024-03-08T00:35:04;40.78;;;20.73;;
25525;SDS011;13424;48.424;11.258;2024-03-08T00:37:32;43.58;;;19.90;;
25525;SDS011;13424;48.424;11.258;2024-03-08T00:39:59;41.22;;;21.88;;
25525;SDS011;13424;48.424;11.258;2024-03-08T00:42:25;39.75;;;20.02;;
25525;SDS011;13424;48.424;11.258;2024-03-08T00:44:51;36.95;;;19.23;;
25525;SDS011;13424;48.424;11.258;2024-03-08T00:47:17;42.35;;;21.25;;
25525;SDS011;13424;48.424;11.258;2024-03-08T00:49:44;34.30;;;19.80;;
25525;SDS011;13424;48.424;11.258;2024-03-08T00:52:10;43.45;;;20.98;;
25525;SDS011;13424;48.424;11.258;2024-03-08T00:54:36;41.35;;;22.45;;
25525;SDS011;13424;48.424;11.258;2024-03-08T00:57:03;43.83;;;21.02;;
25525;SDS011;13424;48.424;11.258;2024-03-08T00:59:30;41.55;;;23.77;;
25525;SDS011;13424;48.424;11.258;2024-03-08T01:01:58;38.70;;;19.90;;
25525;SDS011;13424;48.424;11.258;2024-03-08T01:04:28;37.30;;;20.17;;
25525;SDS011;13424;48.424;11.258;2024-03-08T01:06:57;44.80;;;23.92;;
25525;SDS011;13424;48.424;11.258;2024-03-08T01:09:25;41.78;;;22.25;;
25525;SDS011;13424;48.424;11.258;2024-03-08T01:11:55;44.03;;;22.27;;
25525;SDS011;13424;48.424;11.258;2024-03-08T01:14:21;41.55;;;21.85;;
25525;SDS011;13424;48.424;11.258;2024-03-08T01:16:49;42.08;;;22.08;;
25525;SDS011;13424;48.424;11.258;2024-03-08T01:19:18;49.10;;;23.40;;
25525;SDS011;13424;48.424;11.258;2024-03-08T01:21:46;50.97;;;23.85;;
25525;SDS011;13424;48.424;11.258;2024-03-08T01:24:12;42.72;;;22.48;;
25525;SDS011;13424;48.424;11.258;2024-03-08T01:26:38;43.60;;;22.70;;
25525;SDS011;13424;48.424;11.258;2024-03-08T01:29:04;44.72;;;22.17;;
25525;SDS011;13424;48.424;11.258;2024-03-08T01:31:31;41.33;;;22.20;;
25525;SDS011;13424;48.424;11.258;2024-03-08T01:33:58;36.47;;;20.27;;
25525;SDS011;13424;48.424;11.258;2024-03-08T01:36:24;45.20;;;21.27;;
25525;SDS011;13424;48.424;11.258;2024-03-08T01:38:51;42.10;;;20.80;;
25525;SDS011;13424;48.424;11.258;2024-03-08T01:41:17;45.30;;;23.45;;
25525;SDS011;13424;48.424;11.258;2024-03-08T01:43:44;39.08;;;21.70;;
25525;SDS011;13424;48.424;11.258;2024-03-08T01:46:11;46.97;;;23.00;;
25525;SDS011;13424;48.424;11.258;2024-03-08T01:48:42;46.53;;;24.25;;
25525;SDS011;13424;48.424;11.258;2024-03-08T01:51:09;43.15;;;22.27;;
25525;SDS011;13424;48.424;11.258;2024-03-08T01:53:37;45.63;;;23.08;;
25525;SDS011;13424;48.424;11.258;2024-03-08T01:56:03;39.40;;;22.20;;
25525;SDS011;13424;48.424;11.258;2024-03-08T01:58:31;41.47;;;22.25;;
25525;SDS011;13424;48.424;11.258;2024-03-08T02:00:58;49.33;;;23.88;;
25525;SDS011;13424;48.424;11.258;2024-03-08T02:03:25;46.30;;;23.52;;
25525;SDS011;13424;48.424;11.258;2024-03-08T02:05:51;47.42;;;23.38;;
25525;SDS011;13424;48.424;11.258;2024-03-08T02:08:18;48.92;;;23.80;;
25525;SDS011;13424;48.424;11.258;2024-03-08T02:10:47;41.83;;;21.33;;
25525;SDS011;13424;48.424;11.258;2024-03-08T02:13:14;48.78;;;23.00;;
25525;SDS011;13424;48.424;11.258;2024-03-08T02:15:53;51.97;;;23.45;;
25525;SDS011;13424;48.424;11.258;2024-03-08T02:18:21;41.45;;;20.63;;
25525;SDS011;13424;48.424;11.258;2024-03-08T02:20:55;51.67;;;25.33;;
25525;SDS011;13424;48.424;11.258;2024-03-08T02:23:23;59.50;;;25.80;;
25525;SDS011;13424;48.424;11.258;2024-03-08T02:25:54;47.17;;;23.35;;
25525;SDS011;13424;48.424;11.258;2024-03-08T02:28:22;54.78;;;25.27;;
25525;SDS011;13424;48.424;11.258;2024-03-08T02:30:50;49.80;;;25.95;;
25525;SDS011;13424;48.424;11.258;2024-03-08T02:33:20;45.15;;;24.67;;
25525;SDS011;13424;48.424;11.258;2024-03-08T02:35:47;47.15;;;22.60;;
25525;SDS011;13424;48.424;11.258;2024-03-08T02:38:15;52.25;;;27.60;;
25525;SDS011;13424;48.424;11.258;2024-03-08T02:40:46;49.58;;;23.85;;
25525;SDS011;13424;48.424;11.258;2024-03-08T02:43:14;49.05;;;24.05;;
25525;SDS011;13424;48.424;11.258;2024-03-08T02:45:42;51.88;;;26.23;;
25525;SDS011;13424;48.424;11.258;2024-03-08T02:48:10;49.15;;;24.75;;
25525;SDS011;13424;48.424;11.258;2024-03-08T02:50:38;51.42;;;23.40;;
25525;SDS011;13424;48.424;11.258;2024-03-08T02:53:12;51.30;;;25.10;;
25525;SDS011;13424;48.424;11.258;2024-03-08T02:55:39;51.65;;;27.02;;
25525;SDS011;13424;48.424;11.258;2024-03-08T02:58:06;47.25;;;25.15;;
25525;SDS011;13424;48.424;11.258;2024-03-08T03:00:36;48.53;;;25.20;;
25525;SDS011;13424;48.424;11.258;2024-03-08T03:03:04;53.10;;;24.02;;
25525;SDS011;13424;48.424;11.258;2024-03-08T03:05:31;53.25;;;26.27;;
25525;SDS011;13424;48.424;11.258;2024-03-08T03:07:59;59.10;;;27.88;;
25525;SDS011;13424;48.424;11.258;2024-03-08T03:10:25;48.30;;;25.75;;
25525;SDS011;13424;48.424;11.258;2024-03-08T03:12:51;50.58;;;25.10;;
25525;SDS011;13424;48.424;11.258;2024-03-08T03:15:18;56.90;;;25.30;;
25525;SDS011;13424;48.424;11.258;2024-03-08T03:17:50;49.50;;;27.00;;
25525;SDS011;13424;48.424;11.258;2024-03-08T03:20:17;52.10;;;24.90;;
25525;SDS011;13424;48.424;11.258;2024-03-08T03:22:58;57.67;;;27.30;;
25525;SDS011;13424;48.424;11.258;2024-03-08T03:25:26;48.83;;;26.88;;
25525;SDS011;13424;48.424;11.258;2024-03-08T03:27:58;55.65;;;27.20;;
25525;SDS011;13424;48.424;11.258;2024-03-08T03:30:25;45.47;;;23.00;;
25525;SDS011;13424;48.424;11.258;2024-03-08T03:32:59;57.00;;;26.35;;
25525;SDS011;13424;48.424;11.258;2024-03-08T03:35:29;54.92;;;25.38;;
25525;SDS011;13424;48.424;11.258;2024-03-08T03:37:55;57.47;;;23.60;;
25525;SDS011;13424;48.424;11.258;2024-03-08T03:40:33;57.55;;;26.40;;
25525;SDS011;13424;48.424;11.258;2024-03-08T03:43:00;53.58;;;25.48;;
25525;SDS011;13424;48.424;11.258;2024-03-08T03:45:28;54.60;;;26.70;;
25525;SDS011;13424;48.424;11.258;2024-03-08T03:47:54;56.33;;;25.42;;
25525;SDS011;13424;48.424;11.258;2024-03-08T03:50:21;55.95;;;26.00;;
25525;SDS011;13424;48.424;11.258;2024-03-08T03:52:48;55.25;;;25.92;;
25525;SDS011;13424;48.424;11.258;2024-03-08T03:55:15;53.50;;;25.00;;
25525;SDS011;13424;48.424;11.258;2024-03-08T03:57:41;51.22;;;24.80;;
25525;SDS011;13424;48.424;11.258;2024-03-08T04:00:09;57.63;;;24.08;;
25525;SDS011;13424;48.424;11.258;2024-03-08T04:05:06;58.40;;;27.95;;
25525;SDS011;13424;48.424;11.258;2024-03-08T04:07:35;51.67;;;25.80;;
25525;SDS011;13424;48.424;11.258;2024-03-08T04:10:05;53.92;;;27.13;;
25525;SDS011;13424;48.424;11.258;2024-03-08T04:12:34;57.03;;;26.92;;
25525;SDS011;13424;48.424;11.258;2024-03-08T04:15:01;45.97;;;23.90;;
25525;SDS011;13424;48.424;11.258;2024-03-08T04:17:27;50.08;;;24.10;;
25525;SDS011;13424;48.424;11.258;2024-03-08T04:19:53;60.55;;;25.80;;
25525;SDS011;13424;48.424;11.258;2024-03-08T04:22:19;57.50;;;27.42;;
25525;SDS011;13424;48.424;11.258;2024-03-08T04:24:46;53.38;;;26.13;;
25525;SDS011;13424;48.424;11.258;2024-03-08T04:27:13;49.20;;;23.63;;
25525;SDS011;13424;48.424;11.258;2024-03-08T04:29:39;51.25;;;24.50;;
25525;SDS011;13424;48.424;11.258;2024-03-08T04:32:07;60.25;;;29.08;;
25525;SDS011;13424;48.424;11.258;2024-03-08T04:34:34;60.83;;;28.42;;
25525;SDS011;13424;48.424;11.258;2024-03-08T04:37:01;57.42;;;26.48;;
25525;SDS011;13424;48.424;11.258;2024-03-08T04:39:27;63.10;;;29.65;;
25525;SDS011;13424;48.424;11.258;2024-03-08T04:41:55;59.03;;;29.48;;
25525;SDS011;13424;48.424;11.258;2024-03-08T04:44:30;56.67;;;27.85;;
25525;SDS011;13424;48.424;11.258;2024-03-08T04:46:56;55.00;;;27.50;;
25525;SDS011;13424;48.424;11.258;2024-03-08T04:49:23;63.42;;;28.75;;
25525;SDS011;13424;48.424;11.258;2024-03-08T04:51:49;48.55;;;22.10;;
25525;SDS011;13424;48.424;11.258;2024-03-08T04:54:15;66.30;;;30.15;;
25525;SDS011;13424;48.424;11.258;2024-03-08T04:56:41;60.90;;;31.98;;
25525;SDS011;13424;48.424;11.258;2024-03-08T04:59:07;69.20;;;30.17;;
25525;SDS011;13424;48.424;11.258;2024-03-08T05:01:34;59.88;;;28.52;;
25525;SDS011;13424;48.424;11.258;2024-03-08T05:04:03;49.05;;;24.38;;
25525;SDS011;13424;48.424;11.258;2024-03-08T05:06:30;64.80;;;28.50;;
25525;SDS011;13424;48.424;11.258;2024-03-08T05:08:56;71.43;;;28.88;;
25525;SDS011;13424;48.424;11.258;2024-03-08T05:11:23;58.45;;;25.77;;
25525;SDS011;13424;48.424;11.258;2024-03-08T05:13:49;63.05;;;26.70;;
25525;SDS011;13424;48.424;11.258;2024-03-08T05:16:15;61.10;;;25.92;;
25525;SDS011;13424;48.424;11.258;2024-03-08T05:18:41;74.05;;;32.60;;
25525;SDS011;13424;48.424;11.258;2024-03-08T05:21:07;73.32;;;31.40;;
25525;SDS011;13424;48.424;11.258;2024-03-08T05:23:34;76.43;;;33.50;;
25525;SDS011;13424;48.424;11.258;2024-03-08T05:26:00;82.47;;;33.20;;
25525;SDS011;13424;48.424;11.258;2024-03-08T05:28:26;74.50;;;32.72;;
25525;SDS011;13424;48.424;11.258;2024-03-08T05:30:52;73.25;;;32.08;;
25525;SDS011;13424;48.424;11.258;2024-03-08T05:33:22;61.72;;;28.13;;
25525;SDS011;13424;48.424;11.258;2024-03-08T05:35:49;54.47;;;25.13;;
25525;SDS011;13424;48.424;11.258;2024-03-08T05:38:15;80.47;;;33.15;;
25525;SDS011;13424;48.424;11.258;2024-03-08T05:40:41;60.30;;;31.98;;
25525;SDS011;13424;48.424;11.258;2024-03-08T05:43:08;74.32;;;30.35;;
25525;SDS011;13424;48.424;11.258;2024-03-08T05:45:34;68.00;;;27.50;;
25525;SDS011;13424;48.424;11.258;2024-03-08T05:48:00;74.75;;;33.33;;
25525;SDS011;13424;48.424;11.258;2024-03-08T05:50:26;84.10;;;35.78;;
25525;SDS011;13424;48.424;11.258;2024-03-08T05:52:52;74.30;;;34.42;;
25525;SDS011;13424;48.424;11.258;2024-03-08T05:55:18;67.75;;;28.70;;
25525;SDS011;13424;48.424;11.258;2024-03-08T05:57:44;81.68;;;36.15;;
25525;SDS011;13424;48.424;11.258;2024-03-08T06:00:10;85.97;;;38.00;;
25525;SDS011;13424;48.424;11.258;2024-03-08T06:02:39;84.32;;;36.00;;
25525;SDS011;13424;48.424;11.258;2024-03-08T06:05:10;69.40;;;31.13;;
25525;SDS011;13424;48.424;11.258;2024-03-08T06:07:37;85.13;;;35.10;;
25525;SDS011;13424;48.424;11.258;2024-03-08T06:10:10;69.72;;;32.92;;
25525;SDS011;13424;48.424;11.258;2024-03-08T06:12:39;87.35;;;38.20;;
25525;SDS011;13424;48.424;11.258;2024-03-08T06:15:09;77.63;;;33.58;;
25525;SDS011;13424;48.424;11.258;2024-03-08T06:17:39;81.15;;;35.10;;
25525;SDS011;13424;48.424;11.258;2024-03-08T06:20:06;84.45;;;35.22;;
25525;SDS011;13424;48.424;11.258;2024-03-08T06:22:39;76.30;;;34.17;;
25525;SDS011;13424;48.424;11.258;2024-03-08T06:25:13;75.35;;;35.05;;
25525;SDS011;13424;48.424;11.258;2024-03-08T06:27:41;83.32;;;38.13;;
25525;SDS011;13424;48.424;11.258;2024-03-08T06:30:12;77.97;;;34.75;;
25525;SDS011;13424;48.424;11.258;2024-03-08T06:32:38;82.53;;;33.90;;
25525;SDS011;13424;48.424;11.258;2024-03-08T06:35:05;88.35;;;38.65;;
25525;SDS011;13424;48.424;11.258;2024-03-08T06:37:35;84.53;;;36.97;;
25525;SDS011;13424;48.424;11.258;2024-03-08T06:40:02;79.85;;;34.90;;
25525;SDS011;13424;48.424;11.258;2024-03-08T06:42:29;72.72;;;32.05;;
25525;SDS011;13424;48.424;11.258;2024-03-08T06:44:59;94.65;;;36.47;;
25525;SDS011;13424;48.424;11.258;2024-03-08T06:47:30;89.50;;;37.72;;
25525;SDS011;13424;48.424;11.258;2024-03-08T06:49:57;82.03;;;35.47;;
25525;SDS011;13424;48.424;11.258;2024-03-08T06:52:23;86.03;;;38.58;;
25525;SDS011;13424;48.424;11.258;2024-03-08T06:54:50;75.75;;;34.08;;
25525;SDS011;13424;48.424;11.258;2024-03-08T06:57:18;78.28;;;35.33;;
25525;SDS011;13424;48.424;11.258;2024-03-08T06:59:47;80.50;;;35.90;;
25525;SDS011;13424;48.424;11.258;2024-03-08T07:02:14;85.88;;;35.17;;
25525;SDS011;13424;48.424;11.258;2024-03-08T07:04:40;82.95;;;33.65;;
25525;SDS011;13424;48.424;11.258;2024-03-08T07:07:06;73.72;;;34.28;;
25525;SDS011;13424;48.424;11.258;2024-03-08T07:09:38;76.45;;;33.63;;
25525;SDS011;13424;48.424;11.258;2024-03-08T07:12:04;86.18;;;36.63;;
25525;SDS011;13424;48.424;11.258;2024-03-08T07:14:30;80.90;;;34.63;;
25525;SDS011;13424;48.424;11.258;2024-03-08T07:16:56;67.40;;;30.60;;
25525;SDS011;13424;48.424;11.258;2024-03-08T07:19:22;72.47;;;31.50;;
25525;SDS011;13424;48.424;11.258;2024-03-08T07:21:49;75.32;;;37.50;;
25525;SDS011;13424;48.424;11.258;2024-03-08T07:24:15;66.13;;;31.40;;
25525;SDS011;13424;48.424;11.258;2024-03-08T07:27:05;81.43;;;35.55;;
25525;SDS011;13424;48.424;11.258;2024-03-08T07:29:32;78.10;;;33.70;;
25525;SDS011;13424;48.424;11.258;2024-03-08T07:31:59;86.97;;;39.97;;
25525;SDS011;13424;48.424;11.258;2024-03-08T07:34:44;91.43;;;37.85;;
25525;SDS011;13424;48.424;11.258;2024-03-08T07:37:10;78.35;;;37.63;;
25525;SDS011;13424;48.424;11.258;2024-03-08T07:39:39;79.82;;;35.92;;
25525;SDS011;13424;48.424;11.258;2024-03-08T07:42:05;79.88;;;36.00;;
25525;SDS011;13424;48.424;11.258;2024-03-08T07:44:32;81.35;;;38.80;;
25525;SDS011;13424;48.424;11.258;2024-03-08T07:46:59;79.95;;;35.72;;
25525;SDS011;13424;48.424;11.258;2024-03-08T07:49:25;84.93;;;37.28;;
25525;SDS011;13424;48.424;11.258;2024-03-08T07:51:51;85.93;;;38.47;;
25525;SDS011;13424;48.424;11.258;2024-03-08T07:54:19;74.25;;;34.42;;
25525;SDS011;13424;48.424;11.258;2024-03-08T07:56:45;85.47;;;34.70;;
25525;SDS011;13424;48.424;11.258;2024-03-08T07:59:12;76.78;;;36.50;;
25525;SDS011;13424;48.424;11.258;2024-03-08T08:01:38;80.22;;;37.38;;
25525;SDS011;13424;48.424;11.258;2024-03-08T08:04:04;79.22;;;34.40;;
25525;SDS011;13424;48.424;11.258;2024-03-08T08:06:30;73.97;;;34.95;;
25525;SDS011;13424;48.424;11.258;2024-03-08T08:09:00;76.75;;;35.88;;
25525;SDS011;13424;48.424;11.258;2024-03-08T08:11:29;79.38;;;36.97;;
25525;SDS011;13424;48.424;11.258;2024-03-08T08:13:55;75.07;;;37.40;;
25525;SDS011;13424;48.424;11.258;2024-03-08T08:16:23;77.63;;;37.75;;
25525;SDS011;13424;48.424;11.258;2024-03-08T08:18:51;85.65;;;37.70;;
25525;SDS011;13424;48.424;11.258;2024-03-08T08:21:18;76.70;;;36.10;;
25525;SDS011;13424;48.424;11.258;2024-03-08T08:23:44;61.58;;;26.40;;
25525;SDS011;13424;48.424;11.258;2024-03-08T08:26:11;77.47;;;34.65;;
25525;SDS011;13424;48.424;11.258;2024-03-08T08:28:37;73.93;;;34.80;;
25525;SDS011;13424;48.424;11.258;2024-03-08T08:31:03;74.50;;;35.17;;
25525;SDS011;13424;48.424;11.258;2024-03-08T08:33:29;81.57;;;38.75;;
25525;SDS011;13424;48.424;11.258;2024-03-08T08:35:55;77.43;;;37.67;;
25525;SDS011;13424;48.424;11.258;2024-03-08T08:38:21;74.55;;;35.55;;
25525;SDS011;13424;48.424;11.258;2024-03-08T08:40:48;73.30;;;36.13;;
25525;SDS011;13424;48.424;11.258;2024-03-08T08:43:15;74.68;;;33.45;;
25525;SDS011;13424;48.424;11.258;2024-03-08T08:45:42;71.32;;;33.95;;
25525;SDS011;13424;48.424;11.258;2024-03-08T08:48:08;73.82;;;36.67;;
25525;SDS011;13424;48.424;11.258;2024-03-08T08:50:35;66.50;;;30.33;;
25525;SDS011;13424;48.424;11.258;2024-03-08T08:53:01;68.80;;;35.70;;
25525;SDS011;13424;48.424;11.258;2024-03-08T08:55:28;59.30;;;30.35;;
25525;SDS011;13424;48.424;11.258;2024-03-08T08:57:56;64.90;;;31.73;;
25525;SDS011;13424;48.424;11.258;2024-03-08T09:00:22;63.70;;;30.65;;
25525;SDS011;13424;48.424;11.258;2024-03-08T09:02:52;71.70;;;32.53;;
25525;SDS011;13424;48.424;11.258;2024-03-08T09:05:22;67.00;;;34.47;;
25525;SDS011;13424;48.424;11.258;2024-03-08T09:07:51;70.97;;;34.45;;
25525;SDS011;13424;48.424;11.258;2024-03-08T09:10:18;65.75;;;30.60;;
25525;SDS011;13424;48.424;11.258;2024-03-08T09:12:44;71.28;;;34.58;;
25525;SDS011;13424;48.424;11.258;2024-03-08T09:15:10;65.40;;;32.95;;
25525;SDS011;13424;48.424;11.258;2024-03-08T09:17:37;68.97;;;34.45;;
25525;SDS011;13424;48.424;11.258;2024-03-08T09:20:07;73.47;;;36.33;;
25525;SDS011;13424;48.424;11.258;2024-03-08T09:22:39;72.72;;;36.45;;
25525;SDS011;13424;48.424;11.258;2024-03-08T09:25:09;67.30;;;34.92;;
25525;SDS011;13424;48.424;11.258;2024-03-08T09:27:38;62.00;;;31.60;;
25525;SDS011;13424;48.424;11.258;2024-03-08T09:30:05;72.78;;;34.05;;
25525;SDS011;13424;48.424;11.258;2024-03-08T09:32:32;60.88;;;30.58;;
25525;SDS011;13424;48.424;11.258;2024-03-08T09:34:58;63.45;;;32.47;;
25525;SDS011;13424;48.424;11.258;2024-03-08T09:37:24;64.72;;;33.25;;
25525;SDS011;13424;48.424;11.258;2024-03-08T09:39:50;69.20;;;32.42;;
25525;SDS011;13424;48.424;11.258;2024-03-08T09:42:16;67.40;;;33.92;;
25525;SDS011;13424;48.424;11.258;2024-03-08T09:44:46;65.88;;;34.20;;
25525;SDS011;13424;48.424;11.258;2024-03-08T09:47:15;64.73;;;32.47;;
25525;SDS011;13424;48.424;11.258;2024-03-08T09:49:43;53.97;;;28.13;;
25525;SDS011;13424;48.424;11.258;2024-03-08T09:52:09;55.85;;;30.10;;
25525;SDS011;13424;48.424;11.258;2024-03-08T09:54:36;59.45;;;29.92;;
25525;SDS011;13424;48.424;11.258;2024-03-08T09:57:04;48.60;;;25.58;;
25525;SDS011;13424;48.424;11.258;2024-03-08T09:59:33;55.22;;;28.35;;
25525;SDS011;13424;48.424;11.258;2024-03-08T10:02:02;59.00;;;28.27;;
25525;SDS011;13424;48.424;11.258;2024-03-08T10:04:31;56.72;;;30.10;;
25525;SDS011;13424;48.424;11.258;2024-03-08T10:06:58;59.97;;;29.83;;
25525;SDS011;13424;48.424;11.258;2024-03-08T10:09:26;59.20;;;27.77;;
25525;SDS011;13424;48.424;11.258;2024-03-08T10:11:56;66.53;;;31.05;;
25525;SDS011;13424;48.424;11.258;2024-03-08T10:14:24;60.60;;;30.27;;
25525;SDS011;13424;48.424;11.258;2024-03-08T10:16:52;54.55;;;27.77;;
25525;SDS011;13424;48.424;11.258;2024-03-08T10:19:18;57.63;;;28.30;;
25525;SDS011;13424;48.424;11.258;2024-03-08T10:21:51;52.33;;;29.08;;
25525;SDS011;13424;48.424;11.258;2024-03-08T10:24:19;55.50;;;28.48;;
25525;SDS011;13424;48.424;11.258;2024-03-08T10:26:45;51.83;;;27.60;;
25525;SDS011;13424;48.424;11.258;2024-03-08T10:29:12;49.90;;;26.75;;
25525;SDS011;13424;48.424;11.258;2024-03-08T10:31:43;52.95;;;27.38;;
25525;SDS011;13424;48.424;11.258;2024-03-08T10:34:10;50.40;;;27.55;;
25525;SDS011;13424;48.424;11.258;2024-03-08T10:36:36;52.70;;;27.33;;
25525;SDS011;13424;48.424;11.258;2024-03-08T10:39:03;48.40;;;27.05;;
25525;SDS011;13424;48.424;11.258;2024-03-08T10:42:07;49.10;;;27.67;;
25525;SDS011;13424;48.424;11.258;2024-03-08T10:44:53;46.72;;;24.83;;
25525;SDS011;13424;48.424;11.258;2024-03-08T10:47:32;44.67;;;23.42;;
25525;SDS011;13424;48.424;11.258;2024-03-08T10:50:10;49.20;;;25.65;;
25525;SDS011;13424;48.424;11.258;2024-03-08T10:52:50;46.05;;;24.90;;
25525;SDS011;13424;48.424;11.258;2024-03-08T10:55:18;45.97;;;24.42;;
25525;SDS011;13424;48.424;11.258;2024-03-08T10:57:46;44.17;;;24.30;;
25525;SDS011;13424;48.424;11.258;2024-03-08T11:00:13;44.17;;;24.40;;
25525;SDS011;13424;48.424;11.258;2024-03-08T11:02:46;51.55;;;25.02;;
25525;SDS011;13424;48.424;11.258;2024-03-08T11:05:40;48.92;;;26.58;;
25525;SDS011;13424;48.424;11.258;2024-03-08T11:13:40;43.60;;;23.15;;
25525;SDS011;13424;48.424;11.258;2024-03-08T11:16:36;40.65;;;23.15;;
25525;SDS011;13424;48.424;11.258;2024-03-08T11:19:23;43.97;;;23.17;;
25525;SDS011;13424;48.424;11.258;2024-03-08T11:22:00;39.53;;;23.33;;
25525;SDS011;13424;48.424;11.258;2024-03-08T11:24:38;38.78;;;21.88;;
25525;SDS011;13424;48.424;11.258;2024-03-08T11:27:08;39.85;;;23.10;;
25525;SDS011;13424;48.424;11.258;2024-03-08T11:29:35;44.30;;;24.95;;
25525;SDS011;13424;48.424;11.258;2024-03-08T11:32:09;36.67;;;21.77;;
25525;SDS011;13424;48.424;11.258;2024-03-08T11:34:48;40.78;;;21.92;;
25525;SDS011;13424;48.424;11.258;2024-03-08T11:37:16;33.55;;;20.00;;
25525;SDS011;13424;48.424;11.258;2024-03-08T11:39:53;34.72;;;19.13;;
25525;SDS011;13424;48.424;11.258;2024-03-08T11:42:28;32.67;;;18.92;;
25525;SDS011;13424;48.424;11.258;2024-03-08T11:44:54;32.40;;;18.95;;
25525;SDS011;13424;48.424;11.258;2024-03-08T11:47:21;38.67;;;21.58;;
25525;SDS011;13424;48.424;11.258;2024-03-08T11:49:47;40.38;;;22.58;;
25525;SDS011;13424;48.424;11.258;2024-03-08T11:52:18;38.10;;;21.90;;
25525;SDS011;13424;48.424;11.258;2024-03-08T11:54:54;36.00;;;21.52;;
25525;SDS011;13424;48.424;11.258;2024-03-08T11:57:23;35.70;;;19.52;;
25525;SDS011;13424;48.424;11.258;2024-03-08T11:59:53;37.80;;;20.15;;
25525;SDS011;13424;48.424;11.258;2024-03-08T12:02:24;35.08;;;20.42;;
25525;SDS011;13424;48.424;11.258;2024-03-08T12:04:58;35.97;;;19.23;;
25525;SDS011;13424;48.424;11.258;2024-03-08T12:07:25;31.75;;;18.15;;
25525;SDS011;13424;48.424;11.258;2024-03-08T12:10:17;31.23;;;18.63;;
25525;SDS011;13424;48.424;11.258;2024-03-08T12:12:48;33.78;;;18.27;;
25525;SDS011;13424;48.424;11.258;2024-03-08T12:15:21;35.85;;;19.27;;
25525;SDS011;13424;48.424;11.258;2024-03-08T12:17:52;38.28;;;20.55;;
25525;SDS011;13424;48.424;11.258;2024-03-08T12:20:30;31.77;;;18.02;;
25525;SDS011;13424;48.424;11.258;2024-03-08T12:22:56;30.17;;;19.92;;
25525;SDS011;13424;48.424;11.258;2024-03-08T12:25:30;33.92;;;18.35;;
25525;SDS011;13424;48.424;11.258;2024-03-08T12:28:10;28.42;;;17.42;;
25525;SDS011;13424;48.424;11.258;2024-03-08T12:30:48;31.05;;;17.30;;
25525;SDS011;13424;48.424;11.258;2024-03-08T12:33:18;30.95;;;18.13;;
25525;SDS011;13424;48.424;11.258;2024-03-08T12:35:51;30.73;;;17.23;;
25525;SDS011;13424;48.424;11.258;2024-03-08T12:38:20;28.67;;;16.77;;
25525;SDS011;13424;48.424;11.258;2024-03-08T12:40:50;30.55;;;18.60;;
25525;SDS011;13424;48.424;11.258;2024-03-08T12:43:20;33.90;;;18.80;;
25525;SDS011;13424;48.424;11.258;2024-03-08T12:45:46;30.48;;;17.40;;
25525;SDS011;13424;48.424;11.258;2024-03-08T12:48:15;31.20;;;17.30;;
25525;SDS011;13424;48.424;11.258;2024-03-08T12:50:41;30.55;;;19.20;;
25525;SDS011;13424;48.424;11.258;2024-03-08T12:53:13;34.22;;;20.73;;
25525;SDS011;13424;48.424;11.258;2024-03-08T12:55:39;32.10;;;20.23;;
25525;SDS011;13424;48.424;11.258;2024-03-08T12:58:06;28.60;;;16.77;;
25525;SDS011;13424;48.424;11.258;2024-03-08T13:00:39;29.00;;;19.00;;
25525;SDS011;13424;48.424;11.258;2024-03-08T13:03:08;29.02;;;17.50;;
25525;SDS011;13424;48.424;11.258;2024-03-08T13:05:37;34.60;;;18.55;;
25525;SDS011;13424;48.424;11.258;2024-03-08T13:08:06;30.40;;;17.48;;
25525;SDS011;13424;48.424;11.258;2024-03-08T13:10:41;25.88;;;15.90;;
25525;SDS011;13424;48.424;11.258;2024-03-08T13:13:10;31.65;;;19.08;;
25525;SDS011;13424;48.424;11.258;2024-03-08T13:15:40;27.77;;;17.05;;
25525;SDS011;13424;48.424;11.258;2024-03-08T13:18:07;27.58;;;15.20;;
25525;SDS011;13424;48.424;11.258;2024-03-08T13:20:35;27.02;;;17.00;;
25525;SDS011;13424;48.424;11.258;2024-03-08T13:23:04;26.55;;;16.23;;
25525;SDS011;13424;48.424;11.258;2024-03-08T13:25:31;31.55;;;17.20;;
25525;SDS011;13424;48.424;11.258;2024-03-08T13:27:58;27.40;;;16.58;;
25525;SDS011;13424;48.424;11.258;2024-03-08T13:30:26;29.02;;;16.88;;
25525;SDS011;13424;48.424;11.258;2024-03-08T13:32:52;26.30;;;16.08;;
25525;SDS011;13424;48.424;11.258;2024-03-08T13:35:21;27.63;;;17.33;;
25525;SDS011;13424;48.424;11.258;2024-03-08T13:37:52;26.60;;;16.15;;
25525;SDS011;13424;48.424;11.258;2024-03-08T13:40:18;28.30;;;17.80;;
25525;SDS011;13424;48.424;11.258;2024-03-08T13:42:48;30.17;;;18.00;;
25525;SDS011;13424;48.424;11.258;2024-03-08T13:45:15;30.63;;;16.58;;
25525;SDS011;13424;48.424;11.258;2024-03-08T13:47:46;28.63;;;16.77;;
25525;SDS011;13424;48.424;11.258;2024-03-08T13:50:13;27.08;;;17.33;;
25525;SDS011;13424;48.424;11.258;2024-03-08T13:52:43;30.63;;;17.92;;
25525;SDS011;13424;48.424;11.258;2024-03-08T13:55:09;28.27;;;17.08;;
25525;SDS011;13424;48.424;11.258;2024-03-08T13:57:35;24.92;;;16.95;;
25525;SDS011;13424;48.424;11.258;2024-03-08T14:00:01;25.80;;;16.92;;
25525;SDS011;13424;48.424;11.258;2024-03-08T14:02:38;30.33;;;17.88;;
25525;SDS011;13424;48.424;11.258;2024-03-08T14:05:09;25.73;;;17.77;;
25525;SDS011;13424;48.424;11.258;2024-03-08T14:10:03;25.65;;;15.63;;
25525;SDS011;13424;48.424;11.258;2024-03-08T14:12:32;29.60;;;16.33;;
25525;SDS011;13424;48.424;11.258;2024-03-08T14:14:58;27.50;;;16.48;;
25525;SDS011;13424;48.424;11.258;2024-03-08T14:17:25;27.13;;;14.82;;
25525;SDS011;13424;48.424;11.258;2024-03-08T14:19:53;25.00;;;14.63;;
25525;SDS011;13424;48.424;11.258;2024-03-08T14:22:20;23.48;;;15.43;;
25525;SDS011;13424;48.424;11.258;2024-03-08T14:24:46;32.38;;;16.90;;
25525;SDS011;13424;48.424;11.258;2024-03-08T14:27:12;23.17;;;14.98;;
25525;SDS011;13424;48.424;11.258;2024-03-08T14:29:40;25.80;;;14.40;;
25525;SDS011;13424;48.424;11.258;2024-03-08T14:32:06;24.55;;;15.50;;